Time;durP1;ratioP1;P1;durP2;ratioP2;P2;SDS_P1;SDS_P2;PMS_P1;PMS_P2;Temp;Humidity;BMP_temperature;BMP_pressure;BME280_temperature;BME280_humidity;BME280_pressure;Samples;Min_cycle;Max_cycle;Signal;HPM_P1;HPM_P2
2024/02/19 00:00:58;;;;;;;20.13;6.07;;;;;;;12.58;100.00;102595.63;5036647;28;20053;-73
2024/02/19 00:03:27;;;;;;;16.85;5.90;;;;;;;12.64;100.00;102597.25;5045882;28;20101;-71
2024/02/19 00:05:55;;;;;;;13.77;6.25;;;;;;;12.75;100.00;102592.53;5046910;28;20053;-71
2024/02/19 00:08:22;;;;;;;14.52;7.05;;;;;;;12.48;100.00;102593.72;5045270;28;20049;-69
2024/02/19 00:10:51;;;;;;;18.92;6.20;;;;;;;12.46;100.00;102595.94;5046938;28;20049;-69
2024/02/19 00:13:19;;;;;;;14.35;5.47;;;;;;;12.49;100.00;102605.59;5043203;28;20053;-71
2024/02/19 00:15:47;;;;;;;13.80;4.93;;;;;;;12.50;100.00;102595.38;5046186;28;20061;-68
2024/02/19 00:18:17;;;;;;;15.80;5.05;;;;;;;12.35;100.00;102594.31;5045742;28;20052;-70
2024/02/19 00:20:45;;;;;;;11.85;5.13;;;;;;;12.46;100.00;102589.59;5045189;28;20780;-69
2024/02/19 00:23:12;;;;;;;18.92;5.57;;;;;;;12.55;100.00;102598.97;5046907;28;20064;-70
2024/02/19 00:25:40;;;;;;;11.32;5.07;;;;;;;12.33;100.00;102598.44;5049208;28;20056;-70
2024/02/19 00:28:10;;;;;;;19.10;5.40;;;;;;;12.58;100.00;102595.63;5066635;28;20060;-71
2024/02/19 00:30:39;;;;;;;17.67;4.72;;;;;;;12.39;100.00;102594.59;5049016;28;20065;-71
2024/02/19 00:33:06;;;;;;;15.77;4.88;;;;;;;12.22;100.00;102589.34;5049651;28;20048;-70
2024/02/19 00:35:34;;;;;;;11.75;4.97;;;;;;;12.65;100.00;102585.09;5051410;28;20057;-70
2024/02/19 00:38:01;;;;;;;19.30;6.22;;;;;;;12.86;100.00;102586.69;5051904;28;20064;-71
2024/02/19 00:40:28;;;;;;;14.25;4.88;;;;;;;12.83;100.00;102587.22;5049334;28;20045;-73
2024/02/19 00:42:56;;;;;;;12.63;4.65;;;;;;;12.74;100.00;102594.47;5049061;28;20122;-70
2024/02/19 00:45:23;;;;;;;15.38;5.05;;;;;;;12.73;100.00;102590.03;5048902;28;20056;-70
2024/02/19 00:47:51;;;;;;;16.15;4.82;;;;;;;12.76;100.00;102592.22;5047863;28;20083;-70
2024/02/19 00:50:18;;;;;;;15.35;4.72;;;;;;;12.64;100.00;102585.41;5029111;28;20056;-70
2024/02/19 00:52:45;;;;;;;15.02;4.20;;;;;;;12.77;100.00;102585.63;5042892;28;20053;-71
2024/02/19 00:55:12;;;;;;;14.73;4.85;;;;;;;12.66;100.00;102585.94;5048300;28;20512;-71
2024/02/19 00:57:40;;;;;;;16.27;4.90;;;;;;;12.52;100.00;102587.66;5048458;28;20057;-71
2024/02/19 01:00:08;;;;;;;15.23;4.43;;;;;;;12.45;100.00;102591.53;5050649;28;20684;-71
2024/02/19 01:02:35;;;;;;;14.48;5.25;;;;;;;12.03;100.00;102598.53;5046410;28;20059;-71
2024/02/19 01:05:03;;;;;;;15.48;4.40;;;;;;;12.17;100.00;102596.81;5048173;28;20041;-72
2024/02/19 01:07:34;;;;;;;16.20;4.60;;;;;;;12.24;100.00;102586.31;5048961;28;20049;-71
2024/02/19 01:10:01;;;;;;;14.88;4.95;;;;;;;12.29;100.00;102587.13;5069526;28;20066;-71
2024/02/19 01:12:28;;;;;;;12.60;4.38;;;;;;;12.48;100.00;102592.91;5048227;28;20084;-70
2024/02/19 01:14:56;;;;;;;14.50;4.28;;;;;;;12.16;100.00;102601.53;5051179;28;20056;-71
2024/02/19 01:17:24;;;;;;;11.85;4.05;;;;;;;12.14;100.00;102600.16;5069377;28;20056;-72
2024/02/19 01:19:52;;;;;;;16.80;5.18;;;;;;;12.16;100.00;102606.22;5049486;28;20507;-71
2024/02/19 01:22:19;;;;;;;14.18;5.50;;;;;;;12.19;100.00;102592.69;5015686;28;20500;-70
2024/02/19 01:24:48;;;;;;;13.57;5.13;;;;;;;12.09;100.00;102594.63;5050563;28;20045;-71
2024/02/19 01:27:15;;;;;;;18.60;5.00;;;;;;;12.08;100.00;102598.50;5048136;28;20056;-72
2024/02/19 01:29:43;;;;;;;14.70;4.40;;;;;;;12.10;100.00;102591.59;5048832;28;20761;-73
2024/02/19 01:32:11;;;;;;;11.18;4.47;;;;;;;12.19;100.00;102595.44;5014322;28;20053;-71
2024/02/19 01:34:39;;;;;;;17.67;5.18;;;;;;;11.85;100.00;102607.34;5049760;28;20049;-72
2024/02/19 01:37:06;;;;;;;12.75;4.90;;;;;;;12.02;100.00;102610.66;5046623;28;20075;-71
2024/02/19 01:39:34;;;;;;;13.98;4.97;;;;;;;12.15;100.00;102605.38;5056054;28;20049;-72
2024/02/19 01:42:03;;;;;;;14.23;4.90;;;;;;;12.12;100.00;102610.63;5072502;28;20053;-72
2024/02/19 01:44:31;;;;;;;17.83;5.05;;;;;;;12.14;100.00;102605.66;5049557;28;20045;-71
2024/02/19 01:46:58;;;;;;;19.08;5.70;;;;;;;12.16;100.00;102595.16;5048158;28;20053;-72
2024/02/19 01:49:26;;;;;;;17.27;4.90;;;;;;;12.13;100.00;102591.03;5047530;28;20044;-72
2024/02/19 01:51:54;;;;;;;14.63;4.70;;;;;;;12.25;100.00;102596.28;5047981;28;20057;-72
2024/02/19 01:54:22;;;;;;;14.90;4.55;;;;;;;12.36;100.00;102595.16;5048038;28;20049;-70
2024/02/19 01:56:51;;;;;;;16.23;5.70;;;;;;;12.08;100.00;102595.75;5049097;28;20052;-70
2024/02/19 01:59:21;;;;;;;20.37;5.57;;;;;;;12.08;100.00;102587.47;5013563;28;20053;-71
2024/02/19 02:01:49;;;;;;;16.90;5.85;;;;;;;12.45;100.00;102587.91;5062377;28;20530;-72
2024/02/19 02:04:18;;;;;;;15.73;5.60;;;;;;;12.59;100.00;102594.50;5046855;28;20041;-72
2024/02/19 02:06:46;;;;;;;20.63;5.32;;;;;;;12.57;100.00;102593.16;5046916;28;20703;-72
2024/02/19 02:09:13;;;;;;;15.55;4.72;;;;;;;12.71;100.00;102585.94;5047442;28;20045;-71
2024/02/19 02:11:40;;;;;;;19.55;6.03;;;;;;;12.71;100.00;102585.94;5048215;28;20052;-72
2024/02/19 02:14:08;;;;;;;14.18;4.50;;;;;;;12.59;100.00;102591.75;5048148;28;20045;-72
2024/02/19 02:16:35;;;;;;;17.25;5.20;;;;;;;12.37;100.00;102582.97;5069384;28;20065;-71
2024/02/19 02:19:03;;;;;;;22.35;5.72;;;;;;;12.52;100.00;102576.59;5042983;28;20056;-72
2024/02/19 02:21:31;;;;;;;18.67;6.20;;;;;;;12.61;100.00;102574.88;5027150;28;20049;-70
2024/02/19 02:23:58;;;;;;;17.55;6.57;;;;;;;12.52;100.00;102582.94;5054474;28;20584;-72
2024/02/19 02:26:26;;;;;;;20.77;7.43;;;;;;;12.21;100.00;102590.47;5047605;28;20052;-71
2024/02/19 02:28:53;;;;;;;16.00;6.38;;;;;;;12.01;100.00;102589.69;5046184;28;20061;-71
2024/02/19 02:31:21;;;;;;;16.08;6.65;;;;;;;12.25;100.00;102579.69;5048282;28;20049;-72
2024/02/19 02:33:48;;;;;;;20.00;6.75;;;;;;;12.21;100.00;102579.41;5048136;28;20049;-71
2024/02/19 02:36:16;;;;;;;21.60;6.10;;;;;;;12.20;100.00;102585.22;5029290;28;20053;-71
2024/02/19 02:38:43;;;;;;;20.02;6.40;;;;;;;12.02;100.00;102583.88;5079013;28;20063;-72
2024/02/19 02:41:11;;;;;;;19.00;6.32;;;;;;;12.09;100.00;102581.66;5045704;28;20084;-73
2024/02/19 02:43:38;;;;;;;14.95;6.03;;;;;;;12.17;100.00;102577.47;5048838;28;20784;-71
2024/02/19 02:46:05;;;;;;;15.68;5.50;;;;;;;12.34;100.00;102580.78;5036401;28;20053;-71
2024/02/19 02:48:33;;;;;;;14.88;5.53;;;;;;;12.36;100.00;102571.09;5038075;28;20079;-71
2024/02/19 02:51:00;;;;;;;17.30;5.18;;;;;;;12.38;100.00;102577.16;5072733;28;20049;-72
2024/02/19 02:53:27;;;;;;;13.07;5.15;;;;;;;12.44;100.00;102580.75;5047361;28;20053;-72
2024/02/19 02:55:55;;;;;;;24.52;6.97;;;;;;;12.44;100.00;102577.97;5047721;28;20048;-73
2024/02/19 02:58:22;;;;;;;22.42;6.13;;;;;;;12.40;100.00;102574.13;5047474;28;20288;-71
2024/02/19 03:00:49;;;;;;;22.77;6.57;;;;;;;12.42;100.00;102571.91;5047407;28;20507;-71
2024/02/19 03:03:17;;;;;;;15.07;5.63;;;;;;;12.46;100.00;102579.34;5048208;28;20084;-71
2024/02/19 03:05:44;;;;;;;21.80;6.07;;;;;;;12.50;100.00;102574.06;5046111;28;20045;-71
2024/02/19 03:08:12;;;;;;;18.15;6.25;;;;;;;12.37;100.00;102572.75;5030714;28;20052;-71
2024/02/19 03:10:39;;;;;;;20.25;6.85;;;;;;;12.43;100.00;102582.69;5049456;28;20077;-71
2024/02/19 03:13:06;;;;;;;21.80;6.47;;;;;;;12.41;100.00;102589.59;5010100;28;20080;-70
2024/02/19 03:15:34;;;;;;;20.70;6.22;;;;;;;12.40;100.00;102583.25;5028268;28;20060;-71
2024/02/19 03:18:01;;;;;;;19.52;6.70;;;;;;;12.41;100.00;102584.88;5034235;28;20049;-71
2024/02/19 03:20:28;;;;;;;20.27;7.10;;;;;;;12.31;100.00;102587.69;5045675;28;20060;-72
2024/02/19 03:22:56;;;;;;;25.75;7.47;;;;;;;11.89;100.00;102594.66;5046791;28;20075;-73
2024/02/19 03:25:23;;;;;;;23.52;6.93;;;;;;;11.96;100.00;102592.44;5046867;28;20052;-72
2024/02/19 03:27:51;;;;;;;19.38;6.95;;;;;;;12.11;100.00;102586.91;5062232;28;20448;-72
2024/02/19 03:30:19;;;;;;;21.67;7.50;;;;;;;12.24;100.00;102583.53;5075991;28;20057;-72
2024/02/19 03:32:46;;;;;;;27.60;8.15;;;;;;;12.26;100.00;102582.16;5045942;28;20053;-72
2024/02/19 03:35:14;;;;;;;25.30;7.82;;;;;;;12.31;100.00;102582.16;5046908;28;20053;-71
2024/02/19 03:37:41;;;;;;;25.05;8.13;;;;;;;12.10;100.00;102575.00;5049111;28;20057;-72
2024/02/19 03:40:10;;;;;;;25.13;8.43;;;;;;;12.29;100.00;102584.38;5048653;28;20053;-72
2024/02/19 03:42:38;;;;;;;22.90;9.03;;;;;;;12.31;100.00;102581.31;5048715;28;20060;-73
2024/02/19 03:45:05;;;;;;;21.13;8.18;;;;;;;12.16;100.00;102584.97;5079498;28;20306;-72
2024/02/19 03:47:34;;;;;;;24.20;7.97;;;;;;;12.11;100.00;102584.13;5025558;28;20065;-71
2024/02/19 03:50:02;;;;;;;23.98;8.07;;;;;;;12.09;100.00;102589.09;5037302;28;20502;-71
2024/02/19 03:52:30;;;;;;;29.60;8.00;;;;;;;12.03;100.00;102584.72;5043620;28;20057;-70
2024/02/19 03:55:00;;;;;;;29.38;9.18;;;;;;;12.13;100.00;102579.16;5046914;28;20045;-70
2024/02/19 03:57:29;;;;;;;28.70;8.07;;;;;;;11.95;100.00;102577.81;5073292;28;20065;-71
2024/02/19 03:59:56;;;;;;;23.50;8.32;;;;;;;11.96;100.00;102571.16;5043818;28;20049;-71
2024/02/19 04:02:24;;;;;;;19.77;7.47;;;;;;;12.15;100.00;102571.44;5029161;28;20857;-71
2024/02/19 04:04:51;;;;;;;27.27;8.63;;;;;;;12.30;100.00;102571.38;5044979;28;20060;-72
2024/02/19 04:07:19;;;;;;;27.52;8.38;;;;;;;12.21;100.00;102579.41;5047095;28;20053;-70
2024/02/19 04:09:46;;;;;;;31.33;8.65;;;;;;;12.38;100.00;102584.63;5077304;28;20440;-70
2024/02/19 04:12:14;;;;;;;33.03;8.55;;;;;;;12.46;100.00;102584.88;5044835;28;20056;-71
2024/02/19 04:14:41;;;;;;;21.83;8.05;;;;;;;12.30;100.00;102585.19;5045528;28;20730;-70
2024/02/19 04:17:08;;;;;;;27.23;8.90;;;;;;;12.34;100.00;102584.34;5045173;28;20605;-71
2024/02/19 04:19:36;;;;;;;25.70;9.00;;;;;;;12.22;100.00;102588.53;5047231;28;20065;-71
2024/02/19 04:22:03;;;;;;;22.98;8.90;;;;;;;12.27;100.00;102588.53;5046978;28;20068;-71
2024/02/19 04:24:31;;;;;;;31.52;9.43;;;;;;;12.25;100.00;102588.81;5045701;28;20052;-71
2024/02/19 04:26:58;;;;;;;25.05;9.10;;;;;;;12.36;100.00;102595.16;5028144;28;20512;-71
2024/02/19 04:29:25;;;;;;;26.58;9.02;;;;;;;12.43;100.00;102595.66;5027167;28;20548;-71
2024/02/19 04:31:53;;;;;;;29.25;10.20;;;;;;;12.38;100.00;102601.19;5026316;28;20591;-71
2024/02/19 04:34:20;;;;;;;31.00;9.07;;;;;;;12.27;100.00;102599.59;5042360;28;20053;-71
2024/02/19 04:36:48;;;;;;;24.42;8.52;;;;;;;12.31;100.00;102609.78;5044979;28;20067;-71
2024/02/19 04:39:16;;;;;;;24.42;8.55;;;;;;;12.28;100.00;102609.50;5042313;28;20409;-70
2024/02/19 04:41:43;;;;;;;29.13;9.15;;;;;;;12.14;100.00;102619.47;5045413;28;20050;-70
2024/02/19 04:44:10;;;;;;;31.90;9.40;;;;;;;12.30;100.00;102623.88;5045304;28;20057;-71
2024/02/19 04:46:38;;;;;;;24.25;8.85;;;;;;;12.57;100.00;102621.59;5043144;28;20053;-70
2024/02/19 04:49:05;;;;;;;25.67;9.10;;;;;;;12.02;100.00;102624.47;5044352;28;20059;-70
2024/02/19 04:51:33;;;;;;;20.98;8.93;;;;;;;11.77;100.00;102617.00;5046041;28;20061;-71
2024/02/19 04:54:02;;;;;;;26.48;9.32;;;;;;;11.89;100.00;102614.00;5044278;28;20060;-71
2024/02/19 04:56:30;;;;;;;30.10;9.70;;;;;;;12.13;100.00;102601.25;5066277;28;20053;-71
2024/02/19 04:58:57;;;;;;;29.30;9.20;;;;;;;11.85;100.00;102599.91;5020363;28;20538;-70
2024/02/19 05:01:29;;;;;;;25.27;9.13;;;;;;;12.01;100.00;102598.78;5046357;28;20064;-71
2024/02/19 05:03:56;;;;;;;28.52;9.45;;;;;;;12.27;100.00;102597.63;5028403;28;20049;-71
2024/02/19 05:06:24;;;;;;;25.90;9.10;;;;;;;12.24;100.00;102600.13;5046502;28;20052;-70
2024/02/19 05:08:51;;;;;;;29.33;9.13;;;;;;;12.20;100.00;102604.56;5046344;28;20067;-71
2024/02/19 05:11:21;;;;;;;28.27;9.35;;;;;;;12.02;100.00;102599.59;5046525;28;20057;-71
2024/02/19 05:13:49;;;;;;;27.23;9.52;;;;;;;12.08;100.00;102602.06;5050872;28;20772;-72
2024/02/19 05:16:16;;;;;;;26.85;9.73;;;;;;;12.38;100.00;102609.50;5051672;28;20045;-71
2024/02/19 05:18:44;;;;;;;24.92;8.60;;;;;;;12.39;100.00;102600.09;5051347;28;20049;-71
2024/02/19 05:21:13;;;;;;;27.08;8.68;;;;;;;12.34;100.00;102600.94;5083591;28;20044;-70
2024/02/19 05:23:41;;;;;;;25.63;9.45;;;;;;;12.46;100.00;102600.66;5050318;28;20575;-72
2024/02/19 05:26:08;;;;;;;24.95;8.38;;;;;;;12.55;100.00;102593.44;5048360;28;20515;-71
2024/02/19 05:28:36;;;;;;;23.45;8.32;;;;;;;12.32;100.00;102605.09;5049914;28;20064;-71
2024/02/19 05:31:05;;;;;;;22.45;9.18;;;;;;;12.03;100.00;102615.09;5049727;28;20057;-72
2024/02/19 05:33:33;;;;;;;22.45;8.63;;;;;;;11.95;100.00;102619.22;5045332;28;20053;-71
2024/02/19 05:36:00;;;;;;;23.75;8.98;;;;;;;12.03;100.00;102620.63;5040082;28;20052;-71
2024/02/19 05:38:27;;;;;;;20.48;9.70;;;;;;;12.05;100.00;102621.13;5048400;28;20060;-71
2024/02/19 05:40:55;;;;;;;23.88;8.95;;;;;;;12.22;100.00;102624.47;5048748;28;20057;-70
2024/02/19 05:43:22;;;;;;;25.35;9.52;;;;;;;12.20;100.00;102623.91;5047406;28;20166;-70
2024/02/19 05:45:49;;;;;;;22.63;9.18;;;;;;;12.16;100.00;102629.16;5048776;28;20045;-71
2024/02/19 05:48:17;;;;;;;22.67;9.52;;;;;;;12.11;100.00;102631.09;5048724;28;20057;-72
2024/02/19 05:50:44;;;;;;;25.50;8.23;;;;;;;11.92;100.00;102630.00;5048111;28;20460;-70
2024/02/19 05:53:11;;;;;;;24.25;9.23;;;;;;;12.31;100.00;102648.47;5047808;28;20059;-70
2024/02/19 05:55:39;;;;;;;20.30;8.30;;;;;;;12.09;100.00;102658.16;5048620;28;20068;-71
2024/02/19 05:58:06;;;;;;;24.75;8.32;;;;;;;12.21;100.00;102656.78;5048386;28;20052;-70
2024/02/19 06:00:33;;;;;;;20.20;8.55;;;;;;;11.95;100.00;102648.75;5030832;28;20053;-71
2024/02/19 06:03:04;;;;;;;19.83;7.88;;;;;;;11.78;100.00;102638.00;5015265;28;20068;-70
2024/02/19 06:05:32;;;;;;;21.95;8.20;;;;;;;11.93;100.00;102643.53;5030842;28;20555;-72
2024/02/19 06:07:59;;;;;;;22.95;9.43;;;;;;;12.11;100.00;102653.19;5050234;28;20049;-71
2024/02/19 06:10:27;;;;;;;22.42;10.02;;;;;;;12.04;100.00;102660.94;5049110;28;20056;-70
2024/02/19 06:12:54;;;;;;;20.20;9.10;;;;;;;11.97;100.00;102652.09;5049706;28;20052;-71
2024/02/19 06:15:23;;;;;;;24.45;10.20;;;;;;;11.90;100.00;102637.72;5048730;28;20056;-71
2024/02/19 06:17:51;;;;;;;23.52;10.52;;;;;;;12.20;100.00;102638.53;5047715;28;20732;-72
2024/02/19 06:20:19;;;;;;;24.63;10.20;;;;;;;12.05;100.00;102644.06;5049112;28;20056;-71
2024/02/19 06:22:46;;;;;;;24.10;10.23;;;;;;;11.93;100.00;102637.16;5048133;28;20064;-71
2024/02/19 06:25:14;;;;;;;22.30;8.57;;;;;;;11.77;100.00;102641.03;5046705;28;20326;-71
2024/02/19 06:27:41;;;;;;;28.52;10.90;;;;;;;11.80;100.00;102644.06;5046984;28;20045;-72
2024/02/19 06:30:09;;;;;;;35.72;10.57;;;;;;;11.85;100.00;102640.47;5046513;28;20605;-72
2024/02/19 06:32:36;;;;;;;24.77;9.90;;;;;;;12.01;100.00;102636.63;5077760;28;20068;-72
2024/02/19 06:35:04;;;;;;;22.15;10.18;;;;;;;12.06;100.00;102634.69;5020165;28;20071;-72
2024/02/19 06:37:32;;;;;;;25.48;9.77;;;;;;;12.07;100.00;102636.34;5027339;28;20053;-73
2024/02/19 06:39:59;;;;;;;23.90;10.38;;;;;;;11.80;100.00;102643.25;5029504;28;20124;-71
2024/02/19 06:42:27;;;;;;;26.45;9.85;;;;;;;11.60;100.00;102646.75;5043628;28;20060;-71
2024/02/19 06:44:54;;;;;;;25.15;10.15;;;;;;;11.78;100.00;102648.22;5049546;28;20068;-71
2024/02/19 06:47:21;;;;;;;25.30;10.07;;;;;;;11.92;100.00;102649.31;5051865;28;20061;-70
2024/02/19 06:49:48;;;;;;;30.92;10.85;;;;;;;12.10;100.00;102641.31;5045241;28;20514;-71
2024/02/19 06:52:18;;;;;;;24.38;10.70;;;;;;;12.24;100.00;102636.88;5046835;28;20060;-70
2024/02/19 06:54:46;;;;;;;31.70;11.13;;;;;;;12.46;100.00;102640.16;5046865;28;20056;-71
2024/02/19 06:57:13;;;;;;;27.77;10.52;;;;;;;12.36;100.00;102640.19;5045826;28;20056;-70
2024/02/19 06:59:41;;;;;;;27.55;10.00;;;;;;;12.48;100.00;102633.53;5049059;28;20087;-71
2024/02/19 07:02:09;;;;;;;22.70;10.65;;;;;;;12.54;100.00;102619.41;5026457;28;20045;-71
2024/02/19 07:04:39;;;;;;;25.20;11.02;;;;;;;12.34;100.00;102611.97;5049132;28;20068;-70
2024/02/19 07:07:10;;;;;;;22.05;10.32;;;;;;;12.37;100.00;102610.63;5046735;28;20059;-70
2024/02/19 07:09:38;;;;;;;26.65;10.48;;;;;;;12.48;100.00;102606.72;5041905;28;20080;-71
2024/02/19 07:12:06;;;;;;;30.63;9.77;;;;;;;12.57;100.00;102607.78;5046042;28;20048;-72
2024/02/19 07:14:33;;;;;;;28.70;10.68;;;;;;;12.57;99.40;102616.06;5048084;28;20053;-72
2024/02/19 07:17:01;;;;;;;34.17;10.60;;;;;;;12.74;99.16;102630.44;5045584;28;20060;-71
2024/02/19 07:19:29;;;;;;;29.60;9.80;;;;;;;12.50;99.69;102632.13;5038810;28;20460;-72
2024/02/19 07:21:56;;;;;;;25.85;9.90;;;;;;;12.81;97.25;102630.97;5045928;28;20049;-71
2024/02/19 07:24:23;;;;;;;28.13;10.02;;;;;;;12.50;99.03;102629.38;5046146;28;20060;-71
2024/02/19 07:26:51;;;;;;;29.23;10.07;;;;;;;12.51;99.56;102631.03;5036295;28;20052;-71
2024/02/19 07:29:18;;;;;;;28.63;9.57;;;;;;;12.48;100.00;102628.84;5028033;28;20068;-70
2024/02/19 07:31:46;;;;;;;30.50;10.55;;;;;;;12.43;100.00;102632.41;5046423;28;20606;-71
2024/02/19 07:34:13;;;;;;;26.75;9.52;;;;;;;12.67;100.00;102640.13;5040012;28;20061;-72
2024/02/19 07:36:41;;;;;;;25.92;9.70;;;;;;;12.78;98.70;102642.56;5042492;28;20059;-72
2024/02/19 07:39:08;;;;;;;25.85;8.80;;;;;;;12.42;100.00;102665.88;5081802;28;20104;-70
2024/02/19 07:41:36;;;;;;;22.45;9.30;;;;;;;12.56;100.00;102675.25;5044005;28;20060;-70
2024/02/19 07:44:04;;;;;;;20.05;8.38;;;;;;;12.72;99.37;102667.75;5044868;28;20389;-73
2024/02/19 07:46:31;;;;;;;23.77;8.68;;;;;;;12.85;99.08;102664.41;5043585;28;20068;-73
2024/02/19 07:48:59;;;;;;;26.05;8.93;;;;;;;12.60;98.58;102679.13;5047259;28;20052;-73
2024/02/19 07:51:27;;;;;;;20.38;7.88;;;;;;;12.59;99.12;102682.97;5048362;28;20068;-71
2024/02/19 07:53:55;;;;;;;37.17;11.30;;;;;;;12.58;98.89;102694.31;5047463;28;20052;-75
2024/02/19 07:56:22;;;;;;;26.48;9.18;;;;;;;12.73;99.27;102689.59;5048371;28;20056;-71
2024/02/19 07:58:49;;;;;;;24.85;8.82;;;;;;;12.93;97.92;102686.78;5048316;28;20041;-70
2024/02/19 08:01:16;;;;;;;23.65;8.85;;;;;;;12.98;97.71;102697.00;5019672;28;20061;-72
2024/02/19 08:03:44;;;;;;;22.88;8.13;;;;;;;12.82;97.86;102698.97;5039644;28;20034;-75
2024/02/19 08:06:11;;;;;;;28.05;10.90;;;;;;;13.01;97.63;102696.41;5071560;28;20049;-71
2024/02/19 08:08:39;;;;;;;24.25;8.82;;;;;;;12.83;98.02;102695.09;5050317;28;20052;-70
2024/02/19 08:11:06;;;;;;;23.00;7.65;;;;;;;12.63;98.92;102686.00;5041778;28;20052;-70
2024/02/19 08:13:34;;;;;;;19.77;7.05;;;;;;;12.77;98.21;102687.09;5040613;28;20053;-70
2024/02/19 08:16:01;;;;;;;17.42;6.20;;;;;;;13.45;98.94;102692.69;5048306;28;20531;-72
2024/02/19 08:18:29;;;;;;;17.33;5.53;;;;;;;13.63;93.61;102705.06;5051769;28;20048;-76
2024/02/19 08:20:56;;;;;;;17.00;5.35;;;;;;;13.48;91.18;102700.41;5042989;28;20056;-69
2024/02/19 08:23:24;;;;;;;15.73;5.70;;;;;;;13.05;92.44;102679.03;5042572;28;20480;-71
2024/02/19 08:25:51;;;;;;;16.15;5.00;;;;;;;13.08;92.96;102677.63;5048423;28;20045;-73
2024/02/19 08:28:19;;;;;;;18.20;5.57;;;;;;;12.81;94.28;102688.19;5043897;28;20052;-72
2024/02/19 08:30:46;;;;;;;15.05;5.53;;;;;;;12.71;95.70;102666.91;5049155;28;20057;-72
2024/02/19 08:33:13;;;;;;;20.48;4.85;;;;;;;12.85;95.30;102656.13;5051045;28;20053;-75
2024/02/19 08:36:04;;;;;;;17.08;5.20;;;;;;;12.66;95.37;102653.09;5049987;28;20056;-77
2024/02/19 08:38:50;;;;;;;39.40;12.73;;;;;;;12.92;95.53;102649.16;5024775;28;20056;-76
2024/02/19 08:41:17;;;;;;;18.13;6.10;;;;;;;12.98;94.24;102659.09;5041618;28;20037;-74
2024/02/19 08:43:45;;;;;;;20.02;5.50;;;;;;;12.98;93.85;102659.09;5046901;28;20272;-73
2024/02/19 08:46:12;;;;;;;26.33;8.40;;;;;;;13.19;93.38;102646.88;5052157;28;20045;-73
2024/02/19 08:48:40;;;;;;;17.52;6.45;;;;;;;13.12;92.57;102632.50;5043204;28;20056;-74
2024/02/19 08:51:08;;;;;;;29.63;15.63;;;;;;;13.24;92.60;102633.00;5037132;28;20052;-72
2024/02/19 08:53:36;;;;;;;28.75;14.05;;;;;;;13.23;91.36;102634.09;5053596;28;20060;-74
2024/02/19 08:56:04;;;;;;;16.27;6.07;;;;;;;13.35;91.29;102619.94;5031486;28;20052;-73
2024/02/19 08:58:33;;;;;;;17.73;4.65;;;;;;;13.52;90.25;102603.78;5042122;28;20038;-74
2024/02/19 09:01:01;;;;;;;17.73;4.20;;;;;;;13.72;88.72;102616.66;5061614;28;20053;-75
2024/02/19 09:03:29;;;;;;;13.65;3.75;;;;;;;13.73;88.08;102624.66;5052013;28;20052;-73
2024/02/19 09:06:00;;;;;;;15.60;4.28;;;;;;;13.83;86.78;102634.81;5050978;28;20064;-72
2024/02/19 09:08:31;;;;;;;16.00;4.20;;;;;;;13.74;86.42;102639.34;5053866;28;20029;-71
2024/02/19 09:10:59;;;;;;;12.00;3.55;;;;;;;13.97;86.14;102646.91;5048908;28;20064;-71
2024/02/19 09:13:26;;;;;;;11.05;3.45;;;;;;;13.84;84.48;102634.56;5037990;28;20794;-71
2024/02/19 09:15:54;;;;;;;16.23;3.60;;;;;;;13.68;84.97;102646.03;5052863;28;20053;-70
2024/02/19 09:18:22;;;;;;;9.05;3.17;;;;;;;13.80;84.92;102655.63;5049396;28;20044;-72
2024/02/19 09:20:52;;;;;;;14.93;4.18;;;;;;;13.67;84.71;102669.31;5059124;28;20057;-71
2024/02/19 09:23:19;;;;;;;13.85;3.60;;;;;;;13.50;85.85;102677.97;5045037;28;20425;-72
2024/02/19 09:25:46;;;;;;;12.40;4.15;;;;;;;13.28;86.39;102686.69;5049378;28;20049;-72
2024/02/19 09:28:14;;;;;;;20.52;4.18;;;;;;;13.17;89.18;102692.53;5048035;28;20042;-72
2024/02/19 09:30:43;;;;;;;10.65;3.50;;;;;;;13.50;89.22;102694.59;5042738;28;20044;-74
2024/02/19 09:33:10;;;;;;;13.32;3.47;;;;;;;13.55;85.77;102698.16;5049308;28;20057;-74
2024/02/19 09:35:38;;;;;;;16.83;3.83;;;;;;;13.50;86.79;102695.41;5048060;28;20060;-73
2024/02/19 09:38:05;;;;;;;14.38;4.30;;;;;;;13.25;87.36;102695.53;5048263;28;20041;-76
2024/02/19 09:40:35;;;;;;;15.10;3.40;;;;;;;13.37;87.80;102696.03;5047325;28;20044;-73
2024/02/19 09:43:05;;;;;;;15.88;4.50;;;;;;;13.17;88.76;102696.13;5052219;28;20060;-72
2024/02/19 09:45:35;;;;;;;12.35;3.70;;;;;;;13.15;88.52;102695.59;5049447;28;20065;-75
2024/02/19 09:48:04;;;;;;;8.45;2.80;;;;;;;12.85;87.91;102695.63;5048088;28;20412;-73
2024/02/19 09:50:31;;;;;;;13.65;3.13;;;;;;;12.93;88.23;102697.00;5047461;28;20136;-72
2024/02/19 09:53:07;;;;;;;10.77;2.90;;;;;;;12.87;88.55;102707.25;5048827;28;20668;-76
2024/02/19 09:55:35;;;;;;;13.32;2.90;;;;;;;12.28;90.83;102709.00;5031621;28;20049;-74
2024/02/19 09:58:03;;;;;;;9.63;3.00;;;;;;;12.47;92.34;102723.91;5073128;28;20057;-75
2024/02/19 10:00:31;;;;;;;10.40;3.17;;;;;;;12.51;91.61;102724.19;5078530;28;20044;-73
2024/02/19 10:02:59;;;;;;;11.02;3.20;;;;;;;12.51;92.42;102719.50;5034267;28;20602;-73
2024/02/19 10:05:26;;;;;;;8.27;2.53;;;;;;;12.37;92.54;102715.63;5047701;28;20604;-75
2024/02/19 10:07:59;;;;;;;12.65;2.83;;;;;;;12.28;93.02;102700.69;5047489;28;20056;-73
2024/02/19 10:10:28;;;;;;;16.60;3.30;;;;;;;12.35;92.62;102699.31;5042730;28;20041;-74
2024/02/19 10:12:59;;;;;;;11.45;2.20;;;;;;;12.57;91.29;102699.00;5050279;28;20029;-74
2024/02/19 10:15:26;;;;;;;7.80;2.70;;;;;;;12.63;90.61;102700.69;5029140;28;20048;-74
2024/02/19 10:17:54;;;;;;;10.25;2.58;;;;;;;12.56;91.14;102715.88;5048480;28;20049;-74
2024/02/19 10:20:21;;;;;;;10.02;2.28;;;;;;;12.40;91.80;102713.13;5049292;28;20795;-72
2024/02/19 10:22:49;;;;;;;7.85;2.53;;;;;;;12.38;93.71;102706.22;5048821;28;20055;-72
2024/02/19 10:25:17;;;;;;;9.20;3.30;;;;;;;12.55;92.57;102726.13;5051887;28;20055;-72
2024/02/19 10:27:45;;;;;;;8.43;2.67;;;;;;;12.30;92.94;102728.88;5050667;28;20519;-72
2024/02/19 10:30:13;;;;;;;7.60;2.72;;;;;;;12.19;95.72;102718.94;5052523;28;20049;-72
2024/02/19 10:32:41;;;;;;;9.90;2.88;;;;;;;12.06;96.27;102714.81;5045933;28;20057;-71
2024/02/19 10:35:09;;;;;;;8.35;2.53;;;;;;;12.12;97.29;102713.69;5041861;28;20057;-71
2024/02/19 10:37:36;;;;;;;9.15;3.13;;;;;;;12.16;97.88;102708.44;5045543;28;20041;-71
2024/02/19 10:40:08;;;;;;;8.60;3.53;;;;;;;12.22;98.95;102712.88;5047921;28;20045;-70
2024/02/19 10:42:36;;;;;;;9.07;4.50;;;;;;;12.24;98.96;102716.16;5047376;28;20056;-71
2024/02/19 10:45:04;;;;;;;8.20;3.38;;;;;;;11.94;100.00;102716.16;5044590;28;20052;-71
2024/02/19 10:47:32;;;;;;;10.90;3.85;;;;;;;12.02;100.00;102710.09;5047194;28;20056;-71
2024/02/19 10:49:59;;;;;;;11.52;4.10;;;;;;;11.73;100.00;102714.47;5045880;28;20045;-72
2024/02/19 10:52:29;;;;;;;10.07;4.15;;;;;;;11.85;100.00;102717.78;5047389;28;20045;-72
2024/02/19 10:54:56;;;;;;;10.73;4.20;;;;;;;12.14;100.00;102716.16;5054769;28;20060;-70
2024/02/19 10:57:49;;;;;;;9.70;4.10;;;;;;;11.93;100.00;102707.03;5048186;28;20539;-70
2024/02/19 11:00:17;;;;;;;9.35;4.10;;;;;;;11.98;100.00;102700.69;5045616;28;20056;-71
2024/02/19 11:02:47;;;;;;;14.82;5.22;;;;;;;12.40;100.00;102704.00;5037036;28;20045;-71
2024/02/19 11:05:14;;;;;;;;;;;;;;;12.29;100.00;102714.22;5045715;28;20057;-74
2024/02/19 11:07:41;;;;;;;9.43;3.63;;;;;;;12.58;100.00;102713.66;5049172;28;19924;-72
2024/02/19 11:10:09;;;;;;;8.70;2.97;;;;;;;12.47;100.00;102707.31;5044096;28;20050;-70
2024/02/19 11:12:38;;;;;;;8.55;3.38;;;;;;;12.54;100.00;102718.09;5049409;28;20044;-69
2024/02/19 11:15:15;;;;;;;9.65;3.33;;;;;;;12.60;100.00;102715.06;5051000;28;20041;-69